Etusivu
METAR-TAF:

METAR-TAF

Lentoasemat :

Sotilaslentoasema

Niederstetten, Saksa

Leveyspiiri: 49-24N, Pituuspiiri: 009-58E, korkeus merenpinnasta: 468 m

Tämänhetkinen sää

Tämä raportti tehtiin 33 minuuttia sitten, kello 21.20 UTC
Tuuli 5 kn koillisesta
Lämpötila 1°C
Kosteus 100%
Ilmanpaine 1020 hPa
Näkyvyys 10 km tai enemmän

METAR: ETHN 212120Z AUTO 05005KT 9999 // ////// 01/01 Q1020 ///

Aika: 23:53 (21:53 UTC)


TAF: puuttuu

Säähavainnot ja -ennusteet yli 4000 lentoasemalta (METAR- ja TAF-raportit).

Käytössä olevat sääasemat on merkitty karttaan keltaisilla ja punaisilla pisteillä.

Aseta hiiri pisteen päälle nähdäksesi sääaseman nimen.

Klikkaa sitten nähdäksesi säähavainnot ja -ennusteet.

Kartan vaihtaminen: klikkaa mustalla rastilla varustettuja vihreitä pisteitä, niin voit zoomata sisään; viivalla varustettua vihreää pistettä, niin voit zoomata ulos tai vihreitä nuolia, niin pääset viereisille kartoille.


METAR-TAF: